LiveATC.Net - Listen to live air traffic control over the Internet!


ICAO: EPLB  IATA: LUZ   Airport: Lublin Airport
City: Lublin
Country: Poland   Continent: Europe
EPLB METAR Weather: EPLB 251330Z 24018KT CAVOK 24/09 Q1005
EPLB Flight Activity (FlightAware)
EPLB Tower/Misc
Feed Status: DOWN
Last heard on: 2018-02-02 22:14:02 (81 days 15 hours 57 minutes ago)
EPLB Tower/Misc Audio Archives
FacilityFrequency
Lublin Coordination131.500
Lublin Tower136.425
Swidnik Radio118.500


NOTICE

Unauthorized use prohibited. See LiveATC.net Terms of Service


Find LiveATC Audio Streams


Airport/ARTCC Code

Frequency Search
(e.g., 124.400, 128.75)
Site-wide search
 


Browse LiveATC Feeds
LiveATC Coverage Map
Top 50 LiveATC Feeds
Bad Weather Areas

LiveATC FAQ
Offer a LiveATC Feed
Contact LiveATC.net
Press Inquiries

LiveATC on iPhone
LiveATC on Android

Windows Phone
Windows 8/10

LiveATC Mobile
(Mobile browser)

ATC Audio Archives
Interesting Recordings

LiveATC Forums


Home Page
About LiveATC.net
Make a Donation
Terms of Use
Privacy Policy

Canadian Air Freqs

AIRMETs/SIGMETs

FAA Airport Status
Nat'l Airspace Status
Arrival Demand Charts


Server Software By:
Icecast.org
Liquidsoap